Harrisburg, PA (17101)

12:22 PM EST on February 07, 2016 (GMT -0500)
EMRO Memorial Observatory | | Change Station
CLOSE
Current Station
Personal Weather Station
Location: Camp Hill, PA
Elevation: 400 ft
Nearby Weather Stations

Elev 400 ft 40.24 °N, 76.92 °W | Updated 17 seconds ago

Clear
Clear
46.2 °F
Feels Like 46 °F
N
0.4
Wind Variable Wind from SSW
Gusts 2.5 mph

Today
High -- | Low -- °F
--% Chance of Precip.
Yesterday
High -- | Low -- °F
Precip. -- in
Pressure 30.15 in
Visibility 9.0 miles
Clouds Few 20000 ft
Mostly Cloudy 25000 ft
Windchill 46 °F
Dew Point 8 °F
Humidity 21%
Rainfall 0.00 in
Snow Depth Not available.
7:10 AM 5:32 PM
Waning Crescent, 1% visible
METAR KMDT 071656Z 24004KT 9SM FEW200 BKN250 04/M04 A3014 RMK AO2 SLP209 T00441039 $
Pressure 30.15 in
Visibility 9.0 miles
Clouds Few 20000 ft
Mostly Cloudy 25000 ft
Windchill 46 °F
Dew Point 8 °F
Humidity 21%
Rainfall 0.00 in
Snow Depth Not available.
7:10 AM 5:32 PM
Waning Crescent, 1% visible
METAR KMDT 071656Z 24004KT 9SM FEW200 BKN250 04/M04 A3014 RMK AO2 SLP209 T00441039 $

10-Day Weather Forecast

Almanac

Astronomy

Feb. 07, 2016 Rise Set
Actual Time
Civil Twilight
Nautical Twilight
Astronomical Twilight
Moon
Length of Visible Light
Length of Day
Tomorrow will be .
, % of the Moon is Illuminated

Today's Extremes

State Highs State Lows

Community

WunderPhotos

Upload Photos

1,891,237 photos uploaded!

WunderBlog® & News

Nearby

Air Quality

  Air Quality AQ Index Pollutant
Not available.

Snow Depth

Station Depth Elevation

Earthquake Activity

City Distance Mag. Time & Date
Minimum magnitude displayed is 2.5.

Coastal Water Temperatures

Place Temperature

Stations

Nearby Weather Stations

Station Location Temp. Windchill Dew Point Humidity Wind Precip. Elev Updated Type
                   

Watches & Warnings

There are currently no watches in effect.